Time;durP1;ratioP1;P1;durP2;ratioP2;P2;SDS_P1;SDS_P2;PMS_P1;PMS_P2;Temp;Humidity;BMP_temperature;BMP_pressure;BME280_temperature;BME280_humidity;BME280_pressure;Samples;Min_cycle;Max_cycle;Signal;HPM_P1;HPM_P2
2021/09/23 00:00:54;;;;;;;13.83;8.33;;;9.00;99.90;;;;;;4919584;29;21079;-91
2021/09/23 00:03:31;;;;;;;13.20;7.90;;;8.90;99.90;;;;;;4919761;29;20213;-90
2021/09/23 00:05:58;;;;;;;14.33;8.47;;;8.90;99.90;;;;;;4918213;29;20188;-90
2021/09/23 00:08:24;;;;;;;13.43;8.47;;;8.90;99.90;;;;;;4919885;29;20280;-91
2021/09/23 00:10:51;;;;;;;14.90;9.07;;;8.80;99.90;;;;;;4918539;29;20686;-91
2021/09/23 00:13:17;;;;;;;15.87;8.87;;;8.80;99.90;;;;;;4919701;29;20185;-90
2021/09/23 00:15:43;;;;;;;13.67;9.07;;;8.80;99.90;;;;;;4918294;29;20184;-91
2021/09/23 00:18:14;;;;;;;17.33;9.30;;;8.70;99.90;;;;;;4919444;29;20185;-91
2021/09/23 00:20:43;;;;;;;18.63;9.67;;;8.70;99.90;;;;;;4919131;29;20611;-90
2021/09/23 00:23:09;;;;;;;17.60;10.00;;;8.70;99.90;;;;;;4919347;29;20189;-90
2021/09/23 00:25:35;;;;;;;15.67;9.97;;;8.60;99.90;;;;;;4919232;29;20236;-90
2021/09/23 00:28:03;;;;;;;20.53;10.57;;;8.70;99.90;;;;;;4919142;29;20193;-90
2021/09/23 00:30:29;;;;;;;17.10;9.93;;;8.60;99.90;;;;;;4902254;29;20244;-90
2021/09/23 00:32:55;;;;;;;17.83;10.57;;;8.60;99.90;;;;;;4917755;29;20216;-90
2021/09/23 00:35:22;;;;;;;18.03;11.10;;;8.60;99.90;;;;;;4919399;29;20264;-91
2021/09/23 00:37:48;;;;;;;19.63;10.37;;;8.60;99.90;;;;;;4917241;29;20188;-90
2021/09/23 00:40:14;;;;;;;17.83;10.40;;;8.50;99.90;;;;;;4917838;29;20243;-91
2021/09/23 00:42:41;;;;;;;17.77;10.03;;;8.50;99.90;;;;;;4917522;29;20199;-90
2021/09/23 00:45:08;;;;;;;17.07;10.57;;;8.50;99.90;;;;;;4918899;29;20212;-91
2021/09/23 00:47:34;;;;;;;19.70;10.57;;;8.40;99.90;;;;;;4918944;29;20181;-90
2021/09/23 00:50:00;;;;;;;17.87;11.20;;;8.40;99.90;;;;;;4917364;29;20626;-90
2021/09/23 00:52:27;;;;;;;19.10;11.53;;;8.40;99.90;;;;;;4918419;29;20216;-90
2021/09/23 00:54:55;;;;;;;23.77;11.50;;;8.40;99.90;;;;;;4918708;29;20184;-90
2021/09/23 00:57:21;;;;;;;19.50;11.63;;;8.40;99.90;;;;;;4917511;29;20181;-90
2021/09/23 00:59:55;;;;;;;21.83;12.17;;;8.40;99.90;;;;;;4901720;29;20211;-90
2021/09/23 01:02:21;;;;;;;19.63;12.10;;;8.40;99.90;;;;;;4919636;29;20204;-90
2021/09/23 01:04:48;;;;;;;20.63;12.23;;;8.40;99.90;;;;;;4918267;29;20188;-90
2021/09/23 01:07:16;;;;;;;17.90;12.37;;;8.40;99.90;;;;;;4918582;29;20267;-91
2021/09/23 01:09:50;;;;;;;18.13;12.30;;;8.40;99.90;;;;;;4919044;29;20181;-89
2021/09/23 01:12:18;;;;;;;19.10;11.63;;;8.40;99.90;;;;;;4919116;29;20201;-89
2021/09/23 01:14:44;;;;;;;17.27;11.70;;;8.40;99.90;;;;;;4918985;29;20195;-90
2021/09/23 01:17:11;;;;;;;19.00;12.67;;;8.40;99.90;;;;;;4918637;29;20189;-89
2021/09/23 01:19:39;;;;;;;20.53;11.13;;;8.50;99.90;;;;;;4917759;29;20185;-89
2021/09/23 01:22:05;;;;;;;19.87;13.23;;;8.50;99.90;;;;;;4927156;29;20185;-90
2021/09/23 01:24:31;;;;;;;23.63;12.93;;;8.50;99.90;;;;;;4926724;29;20180;-90
2021/09/23 01:26:57;;;;;;;19.07;12.33;;;8.50;99.90;;;;;;4920066;29;20661;-89
2021/09/23 01:29:24;;;;;;;25.17;13.53;;;8.50;99.90;;;;;;4917134;29;20733;-89
2021/09/23 01:31:50;;;;;;;21.90;12.80;;;8.50;99.90;;;;;;4917214;29;20235;-89
2021/09/23 01:34:16;;;;;;;22.90;13.87;;;8.50;99.90;;;;;;4917640;29;20197;-90
2021/09/23 01:36:42;;;;;;;22.93;14.30;;;8.50;99.90;;;;;;4917133;29;20192;-89
2021/09/23 01:39:08;;;;;;;28.67;14.47;;;8.50;99.90;;;;;;4901452;29;20224;-90
2021/09/23 01:41:34;;;;;;;26.70;15.43;;;8.50;99.90;;;;;;4918418;29;20287;-90
2021/09/23 01:44:01;;;;;;;22.60;14.07;;;8.50;99.90;;;;;;4918078;29;20188;-91
2021/09/23 01:46:26;;;;;;;23.27;14.87;;;8.50;99.90;;;;;;4916673;29;20300;-90
2021/09/23 01:48:52;;;;;;;25.57;14.80;;;8.50;99.90;;;;;;4915603;29;20267;-90
2021/09/23 01:51:17;;;;;;;22.20;13.80;;;8.50;99.90;;;;;;4900747;29;20216;-90
2021/09/23 01:53:43;;;;;;;24.70;14.27;;;8.50;99.90;;;;;;4901069;29;20204;-89
2021/09/23 01:56:10;;;;;;;21.63;13.10;;;8.50;99.90;;;;;;4916631;29;20180;-90
2021/09/23 01:58:35;;;;;;;23.43;13.53;;;8.50;99.90;;;;;;4918892;29;20180;-89
2021/09/23 02:01:02;;;;;;;23.70;12.83;;;8.40;99.90;;;;;;4916800;29;20188;-89
2021/09/23 02:03:27;;;;;;;27.50;14.83;;;8.40;99.90;;;;;;4917174;29;20185;-90
2021/09/23 02:05:53;;;;;;;23.87;14.13;;;8.40;99.90;;;;;;4916387;29;20196;-90
2021/09/23 02:08:19;;;;;;;24.47;14.70;;;8.40;99.90;;;;;;4918107;29;20217;-89
2021/09/23 02:10:44;;;;;;;23.13;14.20;;;8.40;99.90;;;;;;4900865;29;20236;-89
2021/09/23 02:13:10;;;;;;;24.70;14.13;;;8.40;99.90;;;;;;4916469;29;20228;-90
2021/09/23 02:15:36;;;;;;;20.83;13.13;;;8.40;99.90;;;;;;4916803;29;20277;-89
2021/09/23 02:18:02;;;;;;;24.13;14.10;;;8.40;99.90;;;;;;4900755;29;20243;-90
2021/09/23 02:20:27;;;;;;;20.83;13.63;;;8.40;99.90;;;;;;4885297;29;20207;-90
2021/09/23 02:22:53;;;;;;;23.07;13.53;;;8.50;99.90;;;;;;4917201;29;20227;-90
2021/09/23 02:25:18;;;;;;;24.60;14.80;;;8.40;99.90;;;;;;4917250;29;20189;-89
2021/09/23 02:27:44;;;;;;;24.23;14.70;;;8.30;99.90;;;;;;4917156;29;20267;-90
2021/09/23 02:30:11;;;;;;;23.40;14.87;;;8.30;99.90;;;;;;4916422;29;20240;-89
2021/09/23 02:32:37;;;;;;;25.20;14.20;;;8.30;99.90;;;;;;4919927;29;20673;-89
2021/09/23 02:35:04;;;;;;;36.17;20.63;;;8.30;99.90;;;;;;4917925;29;20189;-90
2021/09/23 02:37:30;;;;;;;28.83;17.07;;;8.30;99.90;;;;;;4917392;29;20305;-90
2021/09/23 02:39:57;;;;;;;24.20;15.13;;;8.30;99.90;;;;;;4916112;29;20216;-90
2021/09/23 02:42:23;;;;;;;23.60;13.77;;;8.30;99.90;;;;;;4917368;29;20184;-89
2021/09/23 02:44:49;;;;;;;23.70;14.03;;;8.30;99.90;;;;;;4917827;29;20591;-90
2021/09/23 02:47:15;;;;;;;24.30;14.30;;;8.30;99.90;;;;;;4916698;29;20216;-89
2021/09/23 02:49:41;;;;;;;26.50;14.93;;;8.30;99.90;;;;;;4916199;29;20259;-89
2021/09/23 02:52:06;;;;;;;26.40;14.77;;;8.30;99.90;;;;;;4916808;29;20224;-90
2021/09/23 02:54:32;;;;;;;22.43;13.73;;;8.30;99.90;;;;;;4915965;29;20600;-89
2021/09/23 02:56:58;;;;;;;22.13;13.33;;;8.30;99.90;;;;;;4917172;29;20627;-89
2021/09/23 02:59:23;;;;;;;23.80;14.93;;;8.30;99.90;;;;;;4917287;29;20247;-90
2021/09/23 03:01:49;;;;;;;22.73;13.80;;;8.20;99.90;;;;;;4920703;29;20189;-89
2021/09/23 03:04:15;;;;;;;25.07;14.83;;;8.30;99.90;;;;;;4919715;29;20670;-89
2021/09/23 03:06:40;;;;;;;23.33;14.90;;;8.20;99.90;;;;;;4919918;29;20189;-90
2021/09/23 03:09:08;;;;;;;24.40;14.17;;;8.20;99.90;;;;;;4919564;29;20216;-89
2021/09/23 03:11:35;;;;;;;23.17;15.10;;;8.20;99.90;;;;;;4903974;29;20295;-89
2021/09/23 03:14:00;;;;;;;22.77;14.27;;;8.20;99.90;;;;;;4920187;29;20208;-90
2021/09/23 03:16:26;;;;;;;26.97;15.50;;;8.20;99.90;;;;;;4920331;29;20267;-89
2021/09/23 03:18:51;;;;;;;26.27;14.93;;;8.20;99.90;;;;;;4919128;29;20191;-89
2021/09/23 03:21:19;;;;;;;24.67;16.10;;;8.20;99.90;;;;;;4903088;29;20192;-88
2021/09/23 03:23:45;;;;;;;27.63;14.63;;;8.20;99.90;;;;;;4919005;29;20188;-88
2021/09/23 03:26:11;;;;;;;23.47;15.40;;;8.20;99.90;;;;;;4919169;29;20192;-88
2021/09/23 03:28:36;;;;;;;24.03;16.13;;;8.20;99.90;;;;;;4923258;29;20577;-89
2021/09/23 03:31:02;;;;;;;28.17;16.60;;;8.20;99.90;;;;;;4922264;29;20172;-89
2021/09/23 03:33:28;;;;;;;27.70;16.83;;;8.10;99.90;;;;;;4921973;29;20195;-92
2021/09/23 03:35:53;;;;;;;26.10;16.23;;;8.10;99.90;;;;;;4939190;29;20187;-88
2021/09/23 03:38:19;;;;;;;32.40;15.87;;;8.00;99.90;;;;;;4939056;29;20188;-88
2021/09/23 03:40:45;;;;;;;29.10;16.10;;;8.10;99.90;;;;;;4922902;29;20280;-89
2021/09/23 03:43:17;;;;;;;24.43;15.93;;;8.10;99.90;;;;;;4939126;29;20183;-89
2021/09/23 03:45:45;;;;;;;28.43;15.80;;;8.10;99.90;;;;;;4939308;29;20207;-90
2021/09/23 03:48:11;;;;;;;24.93;14.83;;;8.10;99.90;;;;;;4939130;29;20259;-91
2021/09/23 03:50:37;;;;;;;31.50;16.37;;;8.10;99.90;;;;;;4906262;29;20274;-89
2021/09/23 03:53:03;;;;;;;26.77;15.70;;;8.00;99.90;;;;;;4921276;29;20558;-89
2021/09/23 03:55:29;;;;;;;22.80;14.57;;;8.00;99.90;;;;;;4939414;29;20228;-89
2021/09/23 03:57:54;;;;;;;25.93;15.27;;;8.10;99.90;;;;;;4939115;29;20176;-89
2021/09/23 04:00:23;;;;;;;26.87;15.80;;;8.10;99.90;;;;;;4936670;29;20204;-89
2021/09/23 04:02:49;;;;;;;26.93;15.90;;;8.00;99.90;;;;;;4916444;29;20540;-88
2021/09/23 04:05:15;;;;;;;23.90;15.27;;;8.00;99.90;;;;;;4936140;29;20191;-88
2021/09/23 04:07:41;;;;;;;30.73;17.33;;;8.00;99.90;;;;;;4937980;29;20653;-88
2021/09/23 04:10:08;;;;;;;33.40;18.53;;;8.00;99.90;;;;;;4921389;29;20183;-88
2021/09/23 04:12:34;;;;;;;30.27;17.30;;;8.00;99.90;;;;;;4937761;29;20218;-87
2021/09/23 04:15:00;;;;;;;27.47;17.90;;;8.00;99.90;;;;;;4938879;29;20195;-88
2021/09/23 04:17:26;;;;;;;29.70;17.30;;;8.10;99.90;;;;;;4938401;29;20192;-87
2021/09/23 04:19:51;;;;;;;32.67;18.50;;;8.10;99.90;;;;;;4924771;29;20602;-88
2021/09/23 04:22:18;;;;;;;37.67;19.40;;;8.10;99.90;;;;;;4937496;29;20304;-88
2021/09/23 04:24:44;;;;;;;31.80;17.87;;;8.10;99.90;;;;;;4938179;29;20195;-88
2021/09/23 04:27:10;;;;;;;36.53;20.13;;;8.10;99.90;;;;;;4905338;29;20191;-88
2021/09/23 04:29:37;;;;;;;33.03;19.60;;;8.10;99.90;;;;;;4937752;29;20235;-88
2021/09/23 04:32:03;;;;;;;34.30;18.97;;;8.10;99.90;;;;;;4937654;29;20291;-88
2021/09/23 04:34:29;;;;;;;37.73;19.43;;;8.10;99.90;;;;;;4920763;29;20761;-88
2021/09/23 04:36:54;;;;;;;32.87;18.83;;;8.10;99.90;;;;;;4920786;29;20219;-88
2021/09/23 04:39:20;;;;;;;32.67;19.37;;;8.10;99.90;;;;;;4920800;29;20238;-88
2021/09/23 04:41:46;;;;;;;33.17;20.10;;;8.10;99.90;;;;;;4904983;29;20192;-88
2021/09/23 04:44:11;;;;;;;36.37;20.67;;;8.10;99.90;;;;;;4936464;29;20220;-89
2021/09/23 04:46:37;;;;;;;41.60;21.27;;;8.10;99.90;;;;;;4936813;29;20195;-87
2021/09/23 04:49:03;;;;;;;41.20;22.03;;;8.10;99.90;;;;;;4936330;29;20192;-91
2021/09/23 04:51:29;;;;;;;37.13;20.90;;;8.10;99.90;;;;;;4920278;29;20669;-87
2021/09/23 04:53:55;;;;;;;39.87;22.30;;;8.10;99.90;;;;;;4896857;29;20296;-90
2021/09/23 04:56:21;;;;;;;37.70;21.33;;;8.10;99.90;;;;;;4937838;29;20184;-88
2021/09/23 04:58:47;;;;;;;40.87;22.17;;;8.20;99.90;;;;;;4920529;29;20199;-90
2021/09/23 05:01:13;;;;;;;45.80;22.73;;;8.20;99.90;;;;;;4928485;29;20196;-90
2021/09/23 05:03:39;;;;;;;39.90;22.17;;;8.20;99.90;;;;;;4918282;29;20686;-90
2021/09/23 05:06:05;;;;;;;38.53;21.00;;;8.20;99.90;;;;;;4901414;29;20216;-89
2021/09/23 05:08:30;;;;;;;42.40;23.43;;;8.20;99.90;;;;;;4900739;29;20204;-89
2021/09/23 05:10:56;;;;;;;38.37;21.20;;;8.20;99.90;;;;;;4900805;29;20220;-89
2021/09/23 05:13:21;;;;;;;49.93;24.20;;;8.30;99.90;;;;;;4916727;29;20225;-89
2021/09/23 05:15:47;;;;;;;43.67;23.70;;;8.30;99.90;;;;;;4917810;29;20644;-90
2021/09/23 05:18:13;;;;;;;41.80;23.27;;;8.30;99.90;;;;;;4900578;29;20755;-89
2021/09/23 05:20:39;;;;;;;46.70;22.47;;;8.40;99.90;;;;;;4916455;29;20595;-88
2021/09/23 05:23:06;;;;;;;45.73;24.57;;;8.40;99.90;;;;;;4917195;29;20527;-92
2021/09/23 05:25:35;;;;;;;39.17;22.67;;;8.40;99.90;;;;;;4916467;29;20229;-92
2021/09/23 05:28:00;;;;;;;41.60;23.23;;;8.50;99.90;;;;;;4917529;29;20244;-88
2021/09/23 05:30:26;;;;;;;42.50;22.93;;;8.50;99.90;;;;;;4916224;29;20346;-88
2021/09/23 05:32:55;;;;;;;40.50;22.63;;;8.50;99.90;;;;;;4900585;29;20218;-90
2021/09/23 05:35:21;;;;;;;37.37;20.33;;;8.60;99.90;;;;;;4916277;29;20212;-90
2021/09/23 05:37:47;;;;;;;37.07;21.23;;;8.60;99.90;;;;;;4916481;29;20280;-91
2021/09/23 05:40:13;;;;;;;37.80;21.53;;;8.70;99.90;;;;;;4917659;29;20181;-89
2021/09/23 05:42:40;;;;;;;37.00;20.90;;;8.70;99.90;;;;;;4900473;29;20184;-91
2021/09/23 05:45:09;;;;;;;35.67;19.20;;;8.70;99.90;;;;;;4900537;29;20184;-89
2021/09/23 05:47:35;;;;;;;34.43;20.17;;;8.80;99.90;;;;;;4916161;29;20184;-89
2021/09/23 05:50:02;;;;;;;39.27;20.77;;;8.80;99.90;;;;;;4917476;29;20642;-90
2021/09/23 05:52:28;;;;;;;32.50;18.63;;;8.90;99.90;;;;;;4917232;29;20208;-90
2021/09/23 05:54:53;;;;;;;45.00;20.03;;;8.90;99.90;;;;;;4914677;29;20568;-90
2021/09/23 05:57:32;;;;;;;33.03;19.87;;;9.10;99.90;;;;;;4903668;29;20192;-90
2021/09/23 05:59:59;;;;;;;32.47;18.93;;;9.10;99.90;;;;;;4918119;29;20246;-88
2021/09/23 06:02:24;;;;;;;30.60;18.03;;;9.20;99.90;;;;;;4918269;29;20282;-91
2021/09/23 06:04:50;;;;;;;35.00;18.73;;;9.20;99.90;;;;;;4903148;29;20271;-90
2021/09/23 06:07:16;;;;;;;29.57;18.00;;;9.30;99.90;;;;;;4935808;29;20287;-90
2021/09/23 06:09:42;;;;;;;31.50;17.97;;;9.40;99.90;;;;;;4919839;29;20180;-89
2021/09/23 06:12:08;;;;;;;33.23;17.77;;;9.40;99.90;;;;;;4948024;29;20684;-90
2021/09/23 06:14:34;;;;;;;42.73;21.60;;;9.40;99.90;;;;;;4947950;29;20224;-90
2021/09/23 06:17:00;;;;;;;29.00;16.40;;;9.40;99.90;;;;;;4937625;29;20515;-89
2021/09/23 06:19:25;;;;;;;25.00;15.97;;;9.50;99.90;;;;;;4901629;29;20188;-89
2021/09/23 06:21:51;;;;;;;31.90;17.77;;;9.50;99.90;;;;;;4917869;29;20208;-90
2021/09/23 06:24:17;;;;;;;30.37;15.73;;;9.50;99.90;;;;;;4917826;29;20320;-90
2021/09/23 06:26:43;;;;;;;30.77;16.33;;;9.50;99.90;;;;;;4934554;29;20191;-89
2021/09/23 06:29:08;;;;;;;25.70;15.77;;;9.50;99.90;;;;;;4933197;29;20231;-90
2021/09/23 06:31:35;;;;;;;31.93;16.13;;;9.50;99.90;;;;;;4935203;29;20336;-90
2021/09/23 06:34:01;;;;;;;26.00;15.87;;;9.60;99.90;;;;;;4919183;29;20603;-91
2021/09/23 06:36:27;;;;;;;29.17;16.37;;;9.60;99.90;;;;;;4918328;29;20191;-90
2021/09/23 06:38:53;;;;;;;28.90;16.17;;;9.70;99.90;;;;;;4935782;29;20191;-90
2021/09/23 06:41:19;;;;;;;25.23;15.00;;;9.80;99.90;;;;;;4918799;29;20187;-89
2021/09/23 06:43:47;;;;;;;25.17;15.07;;;9.80;99.90;;;;;;4935705;29;20266;-89
2021/09/23 06:46:13;;;;;;;26.30;14.47;;;9.80;99.90;;;;;;4934420;29;20179;-90
2021/09/23 06:48:39;;;;;;;24.23;15.27;;;9.80;99.90;;;;;;4935684;29;20552;-90
2021/09/23 06:51:05;;;;;;;27.90;15.33;;;9.90;99.90;;;;;;4902616;29;20226;-89
2021/09/23 06:53:31;;;;;;;34.43;16.23;;;9.90;99.90;;;;;;4918208;29;20271;-88
2021/09/23 06:55:57;;;;;;;30.67;16.27;;;9.90;99.90;;;;;;4936206;29;20186;-90
2021/09/23 06:58:22;;;;;;;27.03;14.57;;;10.00;99.90;;;;;;4936692;29;20180;-90
2021/09/23 07:00:48;;;;;;;24.80;12.63;;;10.00;99.90;;;;;;4924407;29;20255;-90
2021/09/23 07:03:14;;;;;;;28.57;15.37;;;9.90;99.90;;;;;;4920488;29;20223;-89
2021/09/23 07:05:43;;;;;;;28.67;14.47;;;10.00;99.90;;;;;;4918044;29;20247;-90
2021/09/23 07:08:09;;;;;;;25.43;14.37;;;10.00;99.90;;;;;;4902646;29;20180;-90
2021/09/23 07:10:35;;;;;;;26.60;13.57;;;10.10;99.90;;;;;;4935051;29;20211;-90
2021/09/23 07:13:00;;;;;;;28.77;14.63;;;10.20;99.90;;;;;;4902667;29;20638;-90
2021/09/23 07:15:26;;;;;;;23.40;14.00;;;10.30;99.90;;;;;;4918293;29;20190;-90
2021/09/23 07:17:52;;;;;;;20.00;13.33;;;10.30;99.90;;;;;;4902521;29;20195;-89
2021/09/23 07:20:17;;;;;;;22.27;13.17;;;10.40;99.90;;;;;;4902608;29;20219;-89
2021/09/23 07:22:43;;;;;;;20.20;11.83;;;10.40;99.90;;;;;;4918018;29;20642;-88
2021/09/23 07:25:10;;;;;;;22.63;12.00;;;10.40;99.90;;;;;;4918426;29;20192;-90
2021/09/23 07:27:35;;;;;;;18.23;11.47;;;10.50;99.90;;;;;;4936756;29;20309;-89
2021/09/23 07:30:01;;;;;;;21.57;12.70;;;10.50;99.90;;;;;;4918022;29;20710;-90
2021/09/23 07:32:27;;;;;;;23.27;13.33;;;10.50;99.90;;;;;;4917731;29;20220;-89
2021/09/23 07:34:53;;;;;;;23.00;12.53;;;10.50;99.90;;;;;;4902896;29;20192;-90
2021/09/23 07:37:18;;;;;;;21.87;11.43;;;10.60;99.90;;;;;;4887110;29;20271;-89
2021/09/23 07:39:46;;;;;;;19.07;11.23;;;10.60;99.90;;;;;;4917919;29;20225;-90
2021/09/23 07:42:12;;;;;;;21.30;12.00;;;10.60;99.90;;;;;;4918583;29;20299;-89
2021/09/23 07:44:40;;;;;;;18.07;10.33;;;10.60;99.90;;;;;;4917820;29;20282;-89
2021/09/23 07:47:06;;;;;;;24.03;12.37;;;10.70;99.90;;;;;;4935883;29;20752;-89
2021/09/23 07:49:31;;;;;;;24.43;12.97;;;10.70;99.90;;;;;;4921124;29;20270;-90
2021/09/23 07:51:57;;;;;;;22.90;12.70;;;10.80;99.90;;;;;;4905644;29;20215;-90
2021/09/23 07:54:23;;;;;;;22.90;13.17;;;10.80;99.90;;;;;;4905460;29;20324;-90
2021/09/23 07:56:49;;;;;;;25.00;12.97;;;10.90;99.90;;;;;;4938030;29;20187;-90
2021/09/23 07:59:15;;;;;;;18.87;12.20;;;11.00;99.90;;;;;;4905578;29;20286;-90
2021/09/23 08:01:40;;;;;;;22.93;12.80;;;11.20;99.90;;;;;;4920851;29;20192;-91
2021/09/23 08:04:06;;;;;;;22.83;13.07;;;11.30;99.90;;;;;;4937878;29;20194;-89
2021/09/23 08:06:32;;;;;;;24.13;13.67;;;11.40;99.90;;;;;;4905394;29;20184;-90
2021/09/23 08:08:57;;;;;;;24.87;12.47;;;11.50;99.90;;;;;;4938601;29;20215;-89
2021/09/23 08:11:24;;;;;;;20.30;12.60;;;11.60;99.90;;;;;;4937797;29;20214;-90
2021/09/23 08:13:50;;;;;;;23.13;12.13;;;11.70;99.90;;;;;;4938556;29;20187;-90
2021/09/23 08:16:16;;;;;;;21.80;12.60;;;11.80;99.90;;;;;;4905363;29;20192;-89
2021/09/23 08:18:42;;;;;;;18.67;11.07;;;11.80;99.90;;;;;;4938303;29;20175;-88
2021/09/23 08:21:07;;;;;;;22.53;12.00;;;11.90;99.90;;;;;;4921277;29;20192;-89
2021/09/23 08:23:33;;;;;;;14.98;9.05;;;11.90;99.90;;;;;;4903450;29;20230;-87
2021/09/23 08:25:59;;;;;;;21.50;11.10;;;12.00;99.90;;;;;;4920440;29;20176;-88
2021/09/23 08:28:27;;;;;;;22.15;12.10;;;11.90;99.90;;;;;;4936961;29;20188;-88
2021/09/23 08:30:53;;;;;;;21.13;12.35;;;11.80;99.90;;;;;;4897658;29;20185;-90
2021/09/23 08:33:19;;;;;;;21.08;12.18;;;11.80;99.90;;;;;;4904231;29;20216;-89
2021/09/23 08:35:45;;;;;;;22.70;12.18;;;11.80;99.90;;;;;;4937022;29;20279;-88
2021/09/23 08:38:11;;;;;;;20.13;12.25;;;11.80;99.90;;;;;;4905007;29;20195;-91
2021/09/23 08:40:38;;;;;;;20.50;11.27;;;11.90;99.90;;;;;;4919133;29;20180;-90
2021/09/23 08:43:04;;;;;;;19.45;11.45;;;11.90;99.90;;;;;;4936103;29;20681;-90
2021/09/23 08:45:30;;;;;;;20.52;12.55;;;12.00;99.90;;;;;;4918983;29;20188;-90
2021/09/23 08:47:56;;;;;;;20.40;12.93;;;12.00;99.90;;;;;;4919342;29;20255;-90
2021/09/23 08:50:22;;;;;;;23.15;12.88;;;12.00;99.90;;;;;;4935945;29;20556;-90
2021/09/23 08:52:48;;;;;;;19.37;11.33;;;12.00;99.90;;;;;;4903409;29;20203;-92
2021/09/23 08:55:29;;;;;;;20.53;12.63;;;12.00;99.90;;;;;;4936026;29;20188;-89
2021/09/23 08:57:59;;;;;;;17.85;11.35;;;12.00;99.90;;;;;;4935882;29;20327;-90
2021/09/23 09:00:26;;;;;;;19.55;11.50;;;12.00;99.90;;;;;;4920978;29;20240;-90
2021/09/23 09:03:10;;;;;;;19.48;12.05;;;12.00;99.90;;;;;;4921215;29;20184;-92
2021/09/23 09:05:39;;;;;;;17.60;11.68;;;12.00;99.90;;;;;;4937671;29;20168;-91
2021/09/23 09:08:14;;;;;;;15.98;10.63;;;12.10;99.90;;;;;;4921255;29;20207;-90
2021/09/23 09:10:40;;;;;;;17.23;9.85;;;12.20;99.90;;;;;;4917154;29;20211;-90
2021/09/23 09:13:08;;;;;;;15.50;9.45;;;12.20;99.90;;;;;;4919090;29;20215;-89
2021/09/23 09:15:39;;;;;;;20.08;10.43;;;12.20;99.90;;;;;;4936726;29;20195;-91
2021/09/23 09:18:20;;;;;;;17.83;10.63;;;12.20;99.90;;;;;;4920107;29;20192;-92
2021/09/23 09:21:00;;;;;;;16.67;10.55;;;12.20;99.90;;;;;;4919021;29;20172;-91
2021/09/23 09:23:48;;;;;;;18.25;9.63;;;12.30;99.90;;;;;;4937538;29;20263;-94
2021/09/23 09:26:35;;;;;;;16.70;9.63;;;12.40;99.90;;;;;;4906249;29;20270;-95
2021/09/23 09:29:04;;;;;;;16.45;9.32;;;12.40;99.90;;;;;;4926352;29;20236;-95
2021/09/23 09:31:30;;;;;;;18.90;9.75;;;12.50;99.90;;;;;;4944779;29;20210;-94
2021/09/23 09:33:59;;;;;;;19.70;10.30;;;12.50;99.90;;;;;;4921426;29;20199;-95
2021/09/23 09:36:30;;;;;;;15.88;10.68;;;12.50;99.90;;;;;;4937317;29;20239;-95
2021/09/23 09:39:06;;;;;;;14.57;9.05;;;12.50;99.90;;;;;;4919324;29;20180;-93
2021/09/23 09:41:37;;;;;;;15.98;10.18;;;12.50;99.90;;;;;;4898587;29;20254;-92
2021/09/23 09:44:08;;;;;;;21.13;10.50;;;12.40;99.90;;;;;;4936607;29;20184;-92
2021/09/23 09:46:41;;;;;;;16.65;9.55;;;12.30;99.90;;;;;;4917570;29;20188;-93
2021/09/23 09:49:07;;;;;;;16.83;10.13;;;12.30;99.90;;;;;;4920995;29;20191;-91
2021/09/23 09:51:41;;;;;;;21.67;10.48;;;12.30;99.90;;;;;;4936526;29;20212;-92
2021/09/23 09:54:09;;;;;;;16.25;9.85;;;12.30;99.90;;;;;;4936101;29;20180;-93
2021/09/23 09:56:39;;;;;;;17.02;10.48;;;12.20;99.90;;;;;;4920464;29;20682;-92
2021/09/23 09:59:11;;;;;;;22.88;10.60;;;12.20;99.90;;;;;;4936336;29;20184;-91
2021/09/23 10:01:38;;;;;;;17.48;10.63;;;12.20;99.90;;;;;;4935245;29;20172;-93
2021/09/23 10:04:04;;;;;;;17.33;9.60;;;12.30;99.90;;;;;;4935975;29;20184;-92
2021/09/23 10:06:32;;;;;;;18.65;9.80;;;12.30;99.90;;;;;;4919198;29;20190;-91
2021/09/23 10:08:58;;;;;;;22.05;10.63;;;12.30;99.90;;;;;;4919286;29;20184;-94
2021/09/23 10:11:25;;;;;;;19.83;10.00;;;12.20;99.90;;;;;;4919421;29;20286;-93
2021/09/23 10:13:52;;;;;;;22.20;10.45;;;12.20;99.90;;;;;;4935277;29;20184;-93
2021/09/23 10:16:19;;;;;;;17.08;10.10;;;12.10;99.90;;;;;;4903545;29;20222;-93
2021/09/23 10:18:45;;;;;;;23.30;11.95;;;12.10;99.90;;;;;;4904020;29;20204;-90
2021/09/23 10:21:11;;;;;;;22.00;12.43;;;12.10;99.90;;;;;;4902859;29;20184;-91
2021/09/23 10:23:40;;;;;;;19.38;11.90;;;12.00;99.90;;;;;;4903611;29;20402;-93
2021/09/23 10:26:13;;;;;;;18.73;12.23;;;12.00;99.90;;;;;;4903051;29;20180;-92
2021/09/23 10:28:45;;;;;;;17.05;10.93;;;11.90;99.90;;;;;;4918802;29;20247;-91
2021/09/23 10:31:11;;;;;;;21.33;12.53;;;12.40;99.90;;;;;;4937274;29;20192;-91
2021/09/23 10:33:40;;;;;;;21.50;11.35;;;11.90;99.90;;;;;;4937859;29;20183;-89
2021/09/23 10:36:08;;;;;;;22.25;10.13;;;12.00;99.90;;;;;;4905907;29;20186;-90
2021/09/23 10:38:35;;;;;;;23.63;11.65;;;12.00;99.90;;;;;;4936985;29;20184;-91
2021/09/23 10:41:01;;;;;;;21.52;9.50;;;12.10;99.90;;;;;;4919282;29;20562;-92
2021/09/23 10:43:29;;;;;;;18.65;10.57;;;12.20;99.90;;;;;;4889427;29;20179;-90
2021/09/23 10:45:56;;;;;;;19.48;10.25;;;12.30;99.90;;;;;;4921069;29;20179;-91
2021/09/23 10:48:23;;;;;;;21.35;9.82;;;11.50;99.90;;;;;;4938123;29;20282;-93
2021/09/23 10:50:49;;;;;;;20.20;9.30;;;12.30;99.90;;;;;;4906325;29;20184;-90
2021/09/23 10:53:15;;;;;;;21.92;9.73;;;12.30;99.90;;;;;;4937795;29;20295;-93
2021/09/23 10:55:42;;;;;;;20.38;9.80;;;12.30;99.90;;;;;;4906998;29;20188;-89
2021/09/23 10:58:10;;;;;;;19.15;11.20;;;12.40;99.90;;;;;;4920125;29;20219;-91
2021/09/23 11:00:37;;;;;;;22.05;11.80;;;12.50;99.90;;;;;;4942015;29;20243;-91
2021/09/23 11:03:05;;;;;;;20.48;11.38;;;12.50;99.90;;;;;;4922764;29;20318;-90
2021/09/23 11:05:31;;;;;;;25.17;11.88;;;12.50;99.90;;;;;;4952946;29;20187;-89
2021/09/23 11:08:00;;;;;;;29.98;13.57;;;12.50;99.90;;;;;;4896739;29;20188;-92
2021/09/23 11:10:26;;;;;;;25.42;12.20;;;12.50;99.90;;;;;;4922699;29;20188;-91
2021/09/23 11:12:56;;;;;;;27.25;14.50;;;12.50;99.90;;;;;;4920773;29;20204;-91
2021/09/23 11:15:28;;;;;;;27.90;16.85;;;12.60;99.90;;;;;;4920457;29;20712;-92
2021/09/23 11:17:56;;;;;;;28.73;14.45;;;12.80;99.90;;;;;;4919681;29;20191;-92
2021/09/23 11:20:24;;;;;;;22.23;13.23;;;12.90;99.90;;;;;;4919632;29;20180;-93
2021/09/23 11:22:56;;;;;;;24.15;13.70;;;13.00;99.90;;;;;;4931294;29;20177;-94
2021/09/23 11:25:24;;;;;;;28.38;13.77;;;13.00;99.90;;;;;;4921831;29;20175;-93
2021/09/23 11:27:51;;;;;;;24.75;13.68;;;13.00;99.90;;;;;;4939917;29;20172;-94
2021/09/23 11:30:20;;;;;;;29.27;14.82;;;12.90;99.90;;;;;;4921870;29;20294;-92
2021/09/23 11:32:50;;;;;;;29.42;14.10;;;12.90;99.90;;;;;;4930888;29;20560;-94
2021/09/23 11:35:21;;;;;;;30.10;14.00;;;12.90;99.90;;;;;;4922349;29;20191;-91
2021/09/23 11:37:48;;;;;;;26.48;13.95;;;13.00;99.90;;;;;;4926058;29;20203;-92
2021/09/23 11:40:24;;;;;;;29.95;15.32;;;13.00;99.90;;;;;;4924705;29;20244;-91
2021/09/23 11:42:50;;;;;;;26.42;14.77;;;13.10;99.90;;;;;;4924854;29;20176;-92
2021/09/23 11:45:22;;;;;;;28.83;14.00;;;13.20;99.90;;;;;;4908988;29;20210;-91
2021/09/23 11:47:52;;;;;;;24.23;13.85;;;13.20;99.90;;;;;;4908702;29;20207;-92
2021/09/23 11:50:31;;;;;;;22.88;14.02;;;13.20;99.90;;;;;;4923879;29;20250;-89
2021/09/23 11:53:10;;;;;;;27.92;14.02;;;13.30;99.90;;;;;;4914809;29;20195;-90
2021/09/23 11:55:53;;;;;;;20.85;13.40;;;13.20;99.90;;;;;;4920529;29;20224;-91
2021/09/23 11:58:19;;;;;;;26.63;14.02;;;13.30;99.90;;;;;;4937327;29;20517;-90
2021/09/23 12:00:49;;;;;;;26.58;13.43;;;13.40;99.90;;;;;;4922334;29;20188;-90
2021/09/23 12:03:17;;;;;;;27.42;13.88;;;13.40;99.90;;;;;;4938806;29;20292;-91
2021/09/23 12:05:46;;;;;;;31.35;14.60;;;13.50;99.90;;;;;;4938240;29;20192;-91
2021/09/23 12:08:29;;;;;;;23.55;13.70;;;13.60;99.90;;;;;;4922012;29;20195;-92
2021/09/23 12:11:01;;;;;;;32.45;13.77;;;13.70;99.90;;;;;;4939186;29;20590;-92
2021/09/23 12:13:37;;;;;;;24.52;13.48;;;13.80;99.90;;;;;;4921708;29;20228;-93
2021/09/23 12:16:09;;;;;;;23.52;13.35;;;13.80;99.90;;;;;;4929321;29;20275;-91
2021/09/23 12:18:36;;;;;;;28.75;13.57;;;13.80;99.90;;;;;;4920559;29;20183;-90
2021/09/23 12:21:09;;;;;;;29.05;13.82;;;13.70;99.90;;;;;;4939372;29;20365;-92
2021/09/23 12:23:40;;;;;;;28.10;13.63;;;13.70;99.90;;;;;;4939237;29;20178;-92
2021/09/23 12:26:11;;;;;;;35.00;12.70;;;13.70;99.90;;;;;;4938036;29;20222;-90
2021/09/23 12:29:02;;;;;;;28.67;12.80;;;13.60;99.90;;;;;;4920071;29;20231;-90
2021/09/23 12:31:46;;;;;;;24.73;12.27;;;13.60;99.90;;;;;;4922416;29;20535;-89
2021/09/23 12:34:14;;;;;;;30.70;13.27;;;13.60;99.90;;;;;;4922692;29;20191;-92